Pagrindinis puslapis
METAR-TAF:

METAR-TAF

Oro uostai :

Urfa, Turkija

platuma: 37-27N, ilguma: 38-54E, Aukštis: 823 m

Dabartinis oras

Ataskaita buvo paskelbta 47 minutes, ne 06:20 UTC
Vėjas 4 kt iš Šiaurės/Šiaurės Vakarų
Temperatūra 21°C
Drėgmė 21%
Slėgis 1020 hPa
Matomumas 10 km arba daugiau
nėra debesų žemiau 1500 m ir nėra kamuolinių lietaus debesų

METAR: LTCS 260620Z 34004KT CAVOK 21/M02 Q1020

Laikas: 10:07 (07:07 UTC)

Prognozė

Ataskaita buvo paskelbta 2 valandos ir 27 minutes, ne 04:40 UTC
Prognozė galioja nuo 26 metu 06 UTC su 27 metu 06 UTC
Vėjas 2 kt nuo kintamojo kryptimis
Matomumas 10 km arba daugiau
nėra debesų žemiau 1500 m ir nėra kamuolinių lietaus debesų

TAF: LTCS 260440Z 2606/2706 VRB02KT CAVOK

Orai ataskaitas ir orų prognozės (METAR, TAF).

turimą stotys yra geltonos ir raudonos taškus žemėlapyje.

Perkelti pele per norėdami pamatyti stoties vardą.

Tada spustelėkite, norėdami matyti oro stebėjimo ir prognozės.

Norėdami pakeisti žemėlapį: spustelėkite ant žalios mygtukų su juodo kryžiaus žemyn,; žalią mygtuką su brūkšneliu, jei norite nutolinti; arba žalių rodyklių gretimoms žemėlapius.


METAR-TAF: